sensor_id;sensor_type;location;lat;lon;timestamp;P1;durP1;ratioP1;P2;durP2;ratioP2
65597;SDS011;52267;51.984;20.956;2024-01-30T00:01:16;39.30;;;20.10;;
65597;SDS011;52267;51.984;20.956;2024-01-30T00:03:47;33.70;;;16.80;;
65597;SDS011;52267;51.984;20.956;2024-01-30T00:06:14;30.40;;;13.70;;
65597;SDS011;52267;51.984;20.956;2024-01-30T00:08:45;41.00;;;20.10;;
65597;SDS011;52267;51.984;20.956;2024-01-30T00:11:16;42.20;;;21.10;;
65597;SDS011;52267;51.984;20.956;2024-01-30T00:13:43;43.20;;;19.70;;
65597;SDS011;52267;51.984;20.956;2024-01-30T00:16:20;33.60;;;17.20;;
65597;SDS011;52267;51.984;20.956;2024-01-30T00:18:48;32.70;;;16.80;;
65597;SDS011;52267;51.984;20.956;2024-01-30T00:21:15;38.60;;;19.50;;
65597;SDS011;52267;51.984;20.956;2024-01-30T00:23:42;37.20;;;19.60;;
65597;SDS011;52267;51.984;20.956;2024-01-30T00:26:09;38.20;;;18.60;;
65597;SDS011;52267;51.984;20.956;2024-01-30T00:28:37;32.40;;;16.60;;
65597;SDS011;52267;51.984;20.956;2024-01-30T00:31:05;37.20;;;17.60;;
65597;SDS011;52267;51.984;20.956;2024-01-30T00:33:33;35.90;;;17.30;;
65597;SDS011;52267;51.984;20.956;2024-01-30T00:36:00;37.10;;;16.60;;
65597;SDS011;52267;51.984;20.956;2024-01-30T00:38:28;38.10;;;19.70;;
65597;SDS011;52267;51.984;20.956;2024-01-30T00:40:55;28.00;;;13.20;;
65597;SDS011;52267;51.984;20.956;2024-01-30T00:43:22;36.60;;;18.40;;
65597;SDS011;52267;51.984;20.956;2024-01-30T00:45:51;28.50;;;13.70;;
65597;SDS011;52267;51.984;20.956;2024-01-30T00:48:21;44.90;;;20.80;;
65597;SDS011;52267;51.984;20.956;2024-01-30T00:50:48;25.50;;;11.00;;
65597;SDS011;52267;51.984;20.956;2024-01-30T00:53:15;35.80;;;19.10;;
65597;SDS011;52267;51.984;20.956;2024-01-30T00:55:42;34.70;;;17.60;;
65597;SDS011;52267;51.984;20.956;2024-01-30T00:58:12;38.30;;;19.40;;
65597;SDS011;52267;51.984;20.956;2024-01-30T01:00:39;35.90;;;17.70;;
65597;SDS011;52267;51.984;20.956;2024-01-30T01:03:06;35.80;;;18.80;;
65597;SDS011;52267;51.984;20.956;2024-01-30T01:05:33;34.60;;;18.40;;
65597;SDS011;52267;51.984;20.956;2024-01-30T01:08:00;39.10;;;20.00;;
65597;SDS011;52267;51.984;20.956;2024-01-30T01:10:27;34.10;;;18.60;;
65597;SDS011;52267;51.984;20.956;2024-01-30T01:12:55;36.00;;;18.00;;
65597;SDS011;52267;51.984;20.956;2024-01-30T01:15:22;41.80;;;19.00;;
65597;SDS011;52267;51.984;20.956;2024-01-30T01:17:49;35.00;;;17.40;;
65597;SDS011;52267;51.984;20.956;2024-01-30T01:20:16;41.30;;;19.20;;
65597;SDS011;52267;51.984;20.956;2024-01-30T01:22:43;37.10;;;19.50;;
65597;SDS011;52267;51.984;20.956;2024-01-30T01:25:10;38.20;;;19.60;;
65597;SDS011;52267;51.984;20.956;2024-01-30T01:27:37;36.70;;;17.60;;
65597;SDS011;52267;51.984;20.956;2024-01-30T01:30:11;34.60;;;18.10;;
65597;SDS011;52267;51.984;20.956;2024-01-30T01:32:41;40.60;;;19.20;;
65597;SDS011;52267;51.984;20.956;2024-01-30T01:35:15;33.80;;;17.20;;
65597;SDS011;52267;51.984;20.956;2024-01-30T01:37:42;36.60;;;18.90;;
65597;SDS011;52267;51.984;20.956;2024-01-30T01:40:09;37.60;;;19.90;;
65597;SDS011;52267;51.984;20.956;2024-01-30T01:42:36;37.50;;;18.80;;
65597;SDS011;52267;51.984;20.956;2024-01-30T01:45:04;34.60;;;19.10;;
65597;SDS011;52267;51.984;20.956;2024-01-30T01:47:32;35.10;;;17.90;;
65597;SDS011;52267;51.984;20.956;2024-01-30T01:49:59;40.10;;;19.10;;
65597;SDS011;52267;51.984;20.956;2024-01-30T01:52:26;33.30;;;17.40;;
65597;SDS011;52267;51.984;20.956;2024-01-30T01:54:53;36.00;;;19.20;;
65597;SDS011;52267;51.984;20.956;2024-01-30T01:57:20;39.80;;;18.70;;
65597;SDS011;52267;51.984;20.956;2024-01-30T01:59:47;37.50;;;18.70;;
65597;SDS011;52267;51.984;20.956;2024-01-30T02:02:14;39.70;;;18.50;;
65597;SDS011;52267;51.984;20.956;2024-01-30T02:04:44;31.40;;;17.40;;
65597;SDS011;52267;51.984;20.956;2024-01-30T02:07:12;30.80;;;16.10;;
65597;SDS011;52267;51.984;20.956;2024-01-30T02:09:39;31.30;;;19.10;;
65597;SDS011;52267;51.984;20.956;2024-01-30T02:12:06;42.30;;;20.30;;
65597;SDS011;52267;51.984;20.956;2024-01-30T02:14:33;35.10;;;18.40;;
65597;SDS011;52267;51.984;20.956;2024-01-30T02:17:11;36.30;;;18.00;;
65597;SDS011;52267;51.984;20.956;2024-01-30T02:19:38;37.80;;;20.60;;
65597;SDS011;52267;51.984;20.956;2024-01-30T02:22:05;37.50;;;18.10;;
65597;SDS011;52267;51.984;20.956;2024-01-30T02:24:32;36.00;;;18.50;;
65597;SDS011;52267;51.984;20.956;2024-01-30T02:26:59;34.50;;;18.00;;
65597;SDS011;52267;51.984;20.956;2024-01-30T02:29:26;25.60;;;14.70;;
65597;SDS011;52267;51.984;20.956;2024-01-30T02:31:54;31.50;;;15.70;;
65597;SDS011;52267;51.984;20.956;2024-01-30T02:34:20;29.60;;;14.50;;
65597;SDS011;52267;51.984;20.956;2024-01-30T02:36:47;28.10;;;15.40;;
65597;SDS011;52267;51.984;20.956;2024-01-30T02:39:15;36.40;;;18.40;;
65597;SDS011;52267;51.984;20.956;2024-01-30T02:41:42;28.80;;;14.40;;
65597;SDS011;52267;51.984;20.956;2024-01-30T02:44:09;30.20;;;16.30;;
65597;SDS011;52267;51.984;20.956;2024-01-30T02:46:36;33.50;;;16.80;;
65597;SDS011;52267;51.984;20.956;2024-01-30T02:49:03;26.60;;;15.00;;
65597;SDS011;52267;51.984;20.956;2024-01-30T02:51:30;32.70;;;16.30;;
65597;SDS011;52267;51.984;20.956;2024-01-30T02:53:57;31.40;;;17.60;;
65597;SDS011;52267;51.984;20.956;2024-01-30T02:56:24;40.90;;;17.90;;
65597;SDS011;52267;51.984;20.956;2024-01-30T02:58:51;39.10;;;18.00;;
65597;SDS011;52267;51.984;20.956;2024-01-30T03:01:18;36.80;;;17.90;;
65597;SDS011;52267;51.984;20.956;2024-01-30T03:03:45;35.80;;;19.00;;
65597;SDS011;52267;51.984;20.956;2024-01-30T03:06:12;42.10;;;19.40;;
65597;SDS011;52267;51.984;20.956;2024-01-30T03:08:39;36.70;;;17.30;;
65597;SDS011;52267;51.984;20.956;2024-01-30T03:11:06;34.10;;;18.40;;
65597;SDS011;52267;51.984;20.956;2024-01-30T03:13:33;31.50;;;17.00;;
65597;SDS011;52267;51.984;20.956;2024-01-30T03:16:00;32.20;;;17.50;;
65597;SDS011;52267;51.984;20.956;2024-01-30T03:18:27;35.60;;;18.20;;
65597;SDS011;52267;51.984;20.956;2024-01-30T03:20:54;40.00;;;19.90;;
65597;SDS011;52267;51.984;20.956;2024-01-30T03:23:21;36.00;;;16.30;;
65597;SDS011;52267;51.984;20.956;2024-01-30T03:25:47;31.00;;;15.20;;
65597;SDS011;52267;51.984;20.956;2024-01-30T03:28:15;31.00;;;16.20;;
65597;SDS011;52267;51.984;20.956;2024-01-30T03:30:41;34.10;;;18.10;;
65597;SDS011;52267;51.984;20.956;2024-01-30T03:33:08;37.20;;;18.50;;
65597;SDS011;52267;51.984;20.956;2024-01-30T03:35:35;32.60;;;16.50;;
65597;SDS011;52267;51.984;20.956;2024-01-30T03:38:03;36.10;;;18.90;;
65597;SDS011;52267;51.984;20.956;2024-01-30T03:40:30;34.80;;;18.60;;
65597;SDS011;52267;51.984;20.956;2024-01-30T03:42:57;36.40;;;18.20;;
65597;SDS011;52267;51.984;20.956;2024-01-30T03:45:24;36.00;;;19.10;;
65597;SDS011;52267;51.984;20.956;2024-01-30T03:47:51;36.50;;;19.60;;
65597;SDS011;52267;51.984;20.956;2024-01-30T03:50:18;40.30;;;19.10;;
65597;SDS011;52267;51.984;20.956;2024-01-30T03:52:45;32.70;;;15.20;;
65597;SDS011;52267;51.984;20.956;2024-01-30T03:55:12;40.90;;;18.00;;
65597;SDS011;52267;51.984;20.956;2024-01-30T03:57:39;33.90;;;17.10;;
65597;SDS011;52267;51.984;20.956;2024-01-30T04:00:07;25.20;;;13.50;;
65597;SDS011;52267;51.984;20.956;2024-01-30T04:02:35;37.60;;;18.00;;
65597;SDS011;52267;51.984;20.956;2024-01-30T04:05:02;31.70;;;17.50;;
65597;SDS011;52267;51.984;20.956;2024-01-30T04:07:29;33.10;;;17.30;;
65597;SDS011;52267;51.984;20.956;2024-01-30T04:09:56;36.50;;;18.20;;
65597;SDS011;52267;51.984;20.956;2024-01-30T04:12:23;35.90;;;18.40;;
65597;SDS011;52267;51.984;20.956;2024-01-30T04:14:51;42.10;;;19.60;;
65597;SDS011;52267;51.984;20.956;2024-01-30T04:17:17;38.90;;;19.30;;
65597;SDS011;52267;51.984;20.956;2024-01-30T04:19:44;37.10;;;19.20;;
65597;SDS011;52267;51.984;20.956;2024-01-30T04:22:11;31.40;;;16.60;;
65597;SDS011;52267;51.984;20.956;2024-01-30T04:24:38;27.30;;;12.80;;
65597;SDS011;52267;51.984;20.956;2024-01-30T04:27:06;38.90;;;18.60;;
65597;SDS011;52267;51.984;20.956;2024-01-30T04:29:33;32.10;;;17.30;;
65597;SDS011;52267;51.984;20.956;2024-01-30T04:32:00;38.20;;;17.70;;
65597;SDS011;52267;51.984;20.956;2024-01-30T04:34:27;36.30;;;18.00;;
65597;SDS011;52267;51.984;20.956;2024-01-30T04:36:54;36.10;;;18.00;;
65597;SDS011;52267;51.984;20.956;2024-01-30T04:39:21;39.10;;;19.20;;
65597;SDS011;52267;51.984;20.956;2024-01-30T04:41:48;31.20;;;17.40;;
65597;SDS011;52267;51.984;20.956;2024-01-30T04:44:15;30.20;;;15.80;;
65597;SDS011;52267;51.984;20.956;2024-01-30T04:46:42;35.00;;;19.20;;
65597;SDS011;52267;51.984;20.956;2024-01-30T04:49:09;33.90;;;18.00;;
65597;SDS011;52267;51.984;20.956;2024-01-30T04:51:36;34.90;;;17.80;;
65597;SDS011;52267;51.984;20.956;2024-01-30T04:54:03;34.50;;;19.10;;
65597;SDS011;52267;51.984;20.956;2024-01-30T04:56:30;36.30;;;18.60;;
65597;SDS011;52267;51.984;20.956;2024-01-30T04:58:58;35.60;;;18.20;;
65597;SDS011;52267;51.984;20.956;2024-01-30T05:01:25;41.60;;;20.20;;
65597;SDS011;52267;51.984;20.956;2024-01-30T05:03:52;35.00;;;19.00;;
65597;SDS011;52267;51.984;20.956;2024-01-30T05:06:26;38.00;;;16.40;;
65597;SDS011;52267;51.984;20.956;2024-01-30T05:08:53;29.60;;;15.00;;
65597;SDS011;52267;51.984;20.956;2024-01-30T05:11:20;35.20;;;17.80;;
65597;SDS011;52267;51.984;20.956;2024-01-30T05:13:47;39.50;;;17.90;;
65597;SDS011;52267;51.984;20.956;2024-01-30T05:16:14;34.40;;;18.40;;
65597;SDS011;52267;51.984;20.956;2024-01-30T05:18:41;31.60;;;17.00;;
65597;SDS011;52267;51.984;20.956;2024-01-30T05:21:10;33.40;;;18.20;;
65597;SDS011;52267;51.984;20.956;2024-01-30T05:23:37;36.80;;;19.20;;
65597;SDS011;52267;51.984;20.956;2024-01-30T05:26:04;34.70;;;17.20;;
65597;SDS011;52267;51.984;20.956;2024-01-30T05:28:31;37.10;;;17.50;;
65597;SDS011;52267;51.984;20.956;2024-01-30T05:30:58;33.90;;;18.70;;
65597;SDS011;52267;51.984;20.956;2024-01-30T05:33:25;34.90;;;17.70;;
65597;SDS011;52267;51.984;20.956;2024-01-30T05:35:52;37.00;;;19.40;;
65597;SDS011;52267;51.984;20.956;2024-01-30T05:38:21;34.10;;;16.20;;
65597;SDS011;52267;51.984;20.956;2024-01-30T05:40:48;27.20;;;14.30;;
65597;SDS011;52267;51.984;20.956;2024-01-30T05:43:15;35.10;;;16.40;;
65597;SDS011;52267;51.984;20.956;2024-01-30T05:45:42;35.30;;;18.10;;
65597;SDS011;52267;51.984;20.956;2024-01-30T05:48:09;38.20;;;17.20;;
65597;SDS011;52267;51.984;20.956;2024-01-30T05:50:35;34.10;;;16.80;;
65597;SDS011;52267;51.984;20.956;2024-01-30T05:53:03;38.50;;;17.90;;
65597;SDS011;52267;51.984;20.956;2024-01-30T05:55:30;32.30;;;17.30;;
65597;SDS011;52267;51.984;20.956;2024-01-30T05:57:57;32.70;;;15.90;;
65597;SDS011;52267;51.984;20.956;2024-01-30T06:00:24;29.20;;;14.70;;
65597;SDS011;52267;51.984;20.956;2024-01-30T06:02:51;23.90;;;10.70;;
65597;SDS011;52267;51.984;20.956;2024-01-30T06:05:18;35.80;;;18.70;;
65597;SDS011;52267;51.984;20.956;2024-01-30T06:07:45;22.40;;;11.20;;
65597;SDS011;52267;51.984;20.956;2024-01-30T06:10:12;36.60;;;19.20;;
65597;SDS011;52267;51.984;20.956;2024-01-30T06:12:39;32.80;;;17.10;;
65597;SDS011;52267;51.984;20.956;2024-01-30T06:15:06;36.40;;;20.00;;
65597;SDS011;52267;51.984;20.956;2024-01-30T06:17:34;33.40;;;18.00;;
65597;SDS011;52267;51.984;20.956;2024-01-30T06:20:01;35.30;;;19.50;;
65597;SDS011;52267;51.984;20.956;2024-01-30T06:22:28;31.60;;;16.20;;
65597;SDS011;52267;51.984;20.956;2024-01-30T06:24:55;43.00;;;22.20;;
65597;SDS011;52267;51.984;20.956;2024-01-30T06:27:22;27.60;;;14.50;;
65597;SDS011;52267;51.984;20.956;2024-01-30T06:29:49;30.80;;;15.70;;
65597;SDS011;52267;51.984;20.956;2024-01-30T06:32:16;35.60;;;17.20;;
65597;SDS011;52267;51.984;20.956;2024-01-30T06:34:43;24.10;;;13.30;;
65597;SDS011;52267;51.984;20.956;2024-01-30T06:37:11;28.50;;;15.20;;
65597;SDS011;52267;51.984;20.956;2024-01-30T06:39:38;36.50;;;19.50;;
65597;SDS011;52267;51.984;20.956;2024-01-30T06:42:05;34.30;;;17.20;;
65597;SDS011;52267;51.984;20.956;2024-01-30T06:44:32;35.00;;;19.60;;
65597;SDS011;52267;51.984;20.956;2024-01-30T06:46:59;35.20;;;15.20;;
65597;SDS011;52267;51.984;20.956;2024-01-30T06:49:27;42.70;;;21.00;;
65597;SDS011;52267;51.984;20.956;2024-01-30T06:51:54;33.80;;;16.20;;
65597;SDS011;52267;51.984;20.956;2024-01-30T06:54:21;30.50;;;15.90;;
65597;SDS011;52267;51.984;20.956;2024-01-30T06:56:48;30.40;;;16.60;;
65597;SDS011;52267;51.984;20.956;2024-01-30T06:59:15;23.80;;;13.20;;
65597;SDS011;52267;51.984;20.956;2024-01-30T07:01:42;25.00;;;14.20;;
65597;SDS011;52267;51.984;20.956;2024-01-30T07:04:09;27.10;;;14.50;;
65597;SDS011;52267;51.984;20.956;2024-01-30T07:06:36;32.40;;;17.80;;
65597;SDS011;52267;51.984;20.956;2024-01-30T07:09:03;33.90;;;16.90;;
65597;SDS011;52267;51.984;20.956;2024-01-30T07:11:30;27.50;;;14.00;;
65597;SDS011;52267;51.984;20.956;2024-01-30T07:13:57;33.60;;;18.10;;
65597;SDS011;52267;51.984;20.956;2024-01-30T07:16:25;34.30;;;16.90;;
65597;SDS011;52267;51.984;20.956;2024-01-30T07:18:52;29.80;;;16.30;;
65597;SDS011;52267;51.984;20.956;2024-01-30T07:21:19;33.20;;;17.80;;
65597;SDS011;52267;51.984;20.956;2024-01-30T07:23:48;31.70;;;17.00;;
65597;SDS011;52267;51.984;20.956;2024-01-30T07:26:15;29.00;;;14.70;;
65597;SDS011;52267;51.984;20.956;2024-01-30T07:28:43;35.80;;;18.30;;
65597;SDS011;52267;51.984;20.956;2024-01-30T07:31:10;37.20;;;18.30;;
65597;SDS011;52267;51.984;20.956;2024-01-30T07:33:37;45.40;;;23.30;;
65597;SDS011;52267;51.984;20.956;2024-01-30T07:36:05;31.00;;;16.90;;
65597;SDS011;52267;51.984;20.956;2024-01-30T07:38:32;31.40;;;16.90;;
65597;SDS011;52267;51.984;20.956;2024-01-30T07:40:59;51.00;;;27.40;;
65597;SDS011;52267;51.984;20.956;2024-01-30T07:43:26;40.40;;;24.10;;
65597;SDS011;52267;51.984;20.956;2024-01-30T07:45:53;28.20;;;14.70;;
65597;SDS011;52267;51.984;20.956;2024-01-30T07:48:20;39.10;;;21.80;;
65597;SDS011;52267;51.984;20.956;2024-01-30T07:50:47;35.10;;;21.30;;
65597;SDS011;52267;51.984;20.956;2024-01-30T07:53:15;39.60;;;21.80;;
65597;SDS011;52267;51.984;20.956;2024-01-30T07:55:42;38.30;;;21.10;;
65597;SDS011;52267;51.984;20.956;2024-01-30T07:58:13;30.10;;;16.00;;
65597;SDS011;52267;51.984;20.956;2024-01-30T08:00:40;34.50;;;19.00;;
65597;SDS011;52267;51.984;20.956;2024-01-30T08:03:07;27.30;;;14.10;;
65597;SDS011;52267;51.984;20.956;2024-01-30T08:05:34;35.60;;;17.30;;
65597;SDS011;52267;51.984;20.956;2024-01-30T08:08:01;38.20;;;20.20;;
65597;SDS011;52267;51.984;20.956;2024-01-30T08:10:28;37.40;;;19.40;;
65597;SDS011;52267;51.984;20.956;2024-01-30T08:12:55;27.90;;;14.70;;
65597;SDS011;52267;51.984;20.956;2024-01-30T08:15:22;34.40;;;18.60;;
65597;SDS011;52267;51.984;20.956;2024-01-30T08:17:49;27.00;;;13.80;;
65597;SDS011;52267;51.984;20.956;2024-01-30T08:20:16;28.50;;;16.40;;
65597;SDS011;52267;51.984;20.956;2024-01-30T08:22:43;27.50;;;14.60;;
65597;SDS011;52267;51.984;20.956;2024-01-30T08:25:10;36.40;;;18.70;;
65597;SDS011;52267;51.984;20.956;2024-01-30T08:27:38;20.30;;;10.10;;
65597;SDS011;52267;51.984;20.956;2024-01-30T08:30:06;33.00;;;17.90;;
65597;SDS011;52267;51.984;20.956;2024-01-30T08:32:37;32.50;;;19.10;;
65597;SDS011;52267;51.984;20.956;2024-01-30T08:35:04;37.00;;;19.20;;
65597;SDS011;52267;51.984;20.956;2024-01-30T08:37:33;33.50;;;18.80;;
65597;SDS011;52267;51.984;20.956;2024-01-30T08:40:00;35.80;;;18.60;;
65597;SDS011;52267;51.984;20.956;2024-01-30T08:42:29;31.80;;;17.30;;
65597;SDS011;52267;51.984;20.956;2024-01-30T08:44:56;33.70;;;16.80;;
65597;SDS011;52267;51.984;20.956;2024-01-30T08:47:23;32.40;;;17.00;;
65597;SDS011;52267;51.984;20.956;2024-01-30T08:49:50;26.20;;;14.00;;
65597;SDS011;52267;51.984;20.956;2024-01-30T08:52:17;32.60;;;17.80;;
65597;SDS011;52267;51.984;20.956;2024-01-30T08:54:44;28.70;;;14.80;;
65597;SDS011;52267;51.984;20.956;2024-01-30T08:57:12;27.30;;;14.30;;
65597;SDS011;52267;51.984;20.956;2024-01-30T08:59:39;27.20;;;14.10;;
65597;SDS011;52267;51.984;20.956;2024-01-30T09:02:06;23.10;;;13.60;;
65597;SDS011;52267;51.984;20.956;2024-01-30T09:04:33;29.20;;;15.20;;
65597;SDS011;52267;51.984;20.956;2024-01-30T09:07:00;20.70;;;12.10;;
65597;SDS011;52267;51.984;20.956;2024-01-30T09:09:27;25.50;;;13.70;;
65597;SDS011;52267;51.984;20.956;2024-01-30T09:11:54;26.60;;;14.20;;
65597;SDS011;52267;51.984;20.956;2024-01-30T09:14:22;21.70;;;12.80;;
65597;SDS011;52267;51.984;20.956;2024-01-30T09:16:49;35.90;;;18.30;;
65597;SDS011;52267;51.984;20.956;2024-01-30T09:19:16;25.90;;;13.80;;
65597;SDS011;52267;51.984;20.956;2024-01-30T09:21:43;18.70;;;10.60;;
65597;SDS011;52267;51.984;20.956;2024-01-30T09:24:10;38.00;;;18.60;;
65597;SDS011;52267;51.984;20.956;2024-01-30T09:26:37;33.60;;;18.30;;
65597;SDS011;52267;51.984;20.956;2024-01-30T09:29:04;26.70;;;14.90;;
65597;SDS011;52267;51.984;20.956;2024-01-30T09:31:31;22.80;;;14.20;;
65597;SDS011;52267;51.984;20.956;2024-01-30T09:33:59;22.60;;;12.40;;
65597;SDS011;52267;51.984;20.956;2024-01-30T09:36:26;27.40;;;14.10;;
65597;SDS011;52267;51.984;20.956;2024-01-30T09:38:54;26.60;;;13.70;;
65597;SDS011;52267;51.984;20.956;2024-01-30T09:41:23;40.90;;;20.20;;
65597;SDS011;52267;51.984;20.956;2024-01-30T09:43:52;30.20;;;16.20;;
65597;SDS011;52267;51.984;20.956;2024-01-30T09:46:21;42.40;;;20.10;;
65597;SDS011;52267;51.984;20.956;2024-01-30T09:48:55;33.20;;;17.60;;
65597;SDS011;52267;51.984;20.956;2024-01-30T09:51:22;27.30;;;14.20;;
65597;SDS011;52267;51.984;20.956;2024-01-30T09:53:50;30.10;;;16.90;;
65597;SDS011;52267;51.984;20.956;2024-01-30T09:56:19;30.60;;;17.30;;
65597;SDS011;52267;51.984;20.956;2024-01-30T09:58:46;21.80;;;11.60;;
65597;SDS011;52267;51.984;20.956;2024-01-30T10:01:17;28.30;;;16.50;;
65597;SDS011;52267;51.984;20.956;2024-01-30T10:03:45;29.20;;;16.30;;
65597;SDS011;52267;51.984;20.956;2024-01-30T10:06:12;27.10;;;14.60;;
65597;SDS011;52267;51.984;20.956;2024-01-30T10:08:42;24.50;;;13.50;;
65597;SDS011;52267;51.984;20.956;2024-01-30T10:11:09;27.50;;;14.80;;
65597;SDS011;52267;51.984;20.956;2024-01-30T10:13:36;26.20;;;13.40;;
65597;SDS011;52267;51.984;20.956;2024-01-30T10:16:06;24.20;;;13.30;;
65597;SDS011;52267;51.984;20.956;2024-01-30T10:18:33;25.10;;;13.50;;
65597;SDS011;52267;51.984;20.956;2024-01-30T10:21:00;20.60;;;12.50;;
65597;SDS011;52267;51.984;20.956;2024-01-30T10:23:28;18.90;;;10.90;;
65597;SDS011;52267;51.984;20.956;2024-01-30T10:25:56;22.20;;;12.40;;
65597;SDS011;52267;51.984;20.956;2024-01-30T10:28:23;25.40;;;12.80;;
65597;SDS011;52267;51.984;20.956;2024-01-30T10:30:57;20.20;;;11.30;;
65597;SDS011;52267;51.984;20.956;2024-01-30T10:33:27;23.60;;;12.00;;
65597;SDS011;52267;51.984;20.956;2024-01-30T10:35:59;25.70;;;13.80;;
65597;SDS011;52267;51.984;20.956;2024-01-30T10:38:32;23.00;;;12.20;;
65597;SDS011;52267;51.984;20.956;2024-01-30T10:41:00;26.30;;;15.30;;
65597;SDS011;52267;51.984;20.956;2024-01-30T10:43:33;24.00;;;13.10;;
65597;SDS011;52267;51.984;20.956;2024-01-30T10:46:23;18.00;;;10.80;;
65597;SDS011;52267;51.984;20.956;2024-01-30T10:48:58;26.00;;;12.60;;
65597;SDS011;52267;51.984;20.956;2024-01-30T10:51:27;19.30;;;12.00;;
65597;SDS011;52267;51.984;20.956;2024-01-30T10:53:56;27.90;;;15.20;;
65597;SDS011;52267;51.984;20.956;2024-01-30T10:56:24;23.10;;;14.00;;
65597;SDS011;52267;51.984;20.956;2024-01-30T10:58:52;21.60;;;11.90;;
65597;SDS011;52267;51.984;20.956;2024-01-30T11:01:21;21.20;;;12.90;;
65597;SDS011;52267;51.984;20.956;2024-01-30T11:03:52;15.90;;;9.40;;
65597;SDS011;52267;51.984;20.956;2024-01-30T11:06:24;28.20;;;15.30;;
65597;SDS011;52267;51.984;20.956;2024-01-30T11:09:04;21.70;;;12.00;;
65597;SDS011;52267;51.984;20.956;2024-01-30T11:11:56;22.40;;;13.20;;
65597;SDS011;52267;51.984;20.956;2024-01-30T11:14:30;19.80;;;10.90;;
65597;SDS011;52267;51.984;20.956;2024-01-30T11:16:58;14.60;;;9.50;;
65597;SDS011;52267;51.984;20.956;2024-01-30T11:19:27;20.40;;;11.60;;
65597;SDS011;52267;51.984;20.956;2024-01-30T11:21:54;21.60;;;12.40;;
65597;SDS011;52267;51.984;20.956;2024-01-30T11:24:23;20.50;;;14.00;;
65597;SDS011;52267;51.984;20.956;2024-01-30T11:26:58;23.70;;;12.50;;
65597;SDS011;52267;51.984;20.956;2024-01-30T11:29:27;25.50;;;14.20;;
65597;SDS011;52267;51.984;20.956;2024-01-30T11:31:56;18.70;;;10.90;;
65597;SDS011;52267;51.984;20.956;2024-01-30T11:34:24;21.60;;;12.10;;
65597;SDS011;52267;51.984;20.956;2024-01-30T11:36:53;21.00;;;11.90;;
65597;SDS011;52267;51.984;20.956;2024-01-30T11:39:26;24.20;;;13.50;;
65597;SDS011;52267;51.984;20.956;2024-01-30T11:41:54;23.10;;;15.00;;
65597;SDS011;52267;51.984;20.956;2024-01-30T11:44:22;25.10;;;14.50;;
65597;SDS011;52267;51.984;20.956;2024-01-30T11:46:51;22.70;;;12.70;;
65597;SDS011;52267;51.984;20.956;2024-01-30T11:49:19;23.90;;;13.20;;
65597;SDS011;52267;51.984;20.956;2024-01-30T11:51:46;22.20;;;12.40;;
65597;SDS011;52267;51.984;20.956;2024-01-30T11:54:18;18.70;;;13.20;;
65597;SDS011;52267;51.984;20.956;2024-01-30T11:56:45;21.30;;;12.10;;
65597;SDS011;52267;51.984;20.956;2024-01-30T11:59:12;22.00;;;12.30;;
65597;SDS011;52267;51.984;20.956;2024-01-30T12:01:40;20.10;;;11.80;;
65597;SDS011;52267;51.984;20.956;2024-01-30T12:04:08;23.50;;;13.10;;
65597;SDS011;52267;51.984;20.956;2024-01-30T12:06:36;23.80;;;11.90;;
65597;SDS011;52267;51.984;20.956;2024-01-30T12:09:03;27.10;;;14.80;;
65597;SDS011;52267;51.984;20.956;2024-01-30T12:11:31;24.00;;;13.10;;
65597;SDS011;52267;51.984;20.956;2024-01-30T12:13:58;22.60;;;12.40;;
65597;SDS011;52267;51.984;20.956;2024-01-30T12:16:25;18.90;;;10.70;;
65597;SDS011;52267;51.984;20.956;2024-01-30T12:19:00;15.30;;;10.10;;
65597;SDS011;52267;51.984;20.956;2024-01-30T12:21:29;23.60;;;13.40;;
65597;SDS011;52267;51.984;20.956;2024-01-30T12:23:56;14.40;;;10.10;;
65597;SDS011;52267;51.984;20.956;2024-01-30T12:26:24;21.00;;;11.40;;
65597;SDS011;52267;51.984;20.956;2024-01-30T12:28:55;21.50;;;11.80;;
65597;SDS011;52267;51.984;20.956;2024-01-30T12:31:28;19.10;;;12.30;;
65597;SDS011;52267;51.984;20.956;2024-01-30T12:33:55;18.00;;;11.00;;
65597;SDS011;52267;51.984;20.956;2024-01-30T12:36:23;21.20;;;11.10;;
65597;SDS011;52267;51.984;20.956;2024-01-30T12:38:50;19.70;;;10.70;;
65597;SDS011;52267;51.984;20.956;2024-01-30T12:41:19;21.10;;;13.20;;
65597;SDS011;52267;51.984;20.956;2024-01-30T12:43:46;21.40;;;12.50;;
65597;SDS011;52267;51.984;20.956;2024-01-30T12:46:17;22.30;;;11.80;;
65597;SDS011;52267;51.984;20.956;2024-01-30T12:48:44;17.70;;;10.50;;
65597;SDS011;52267;51.984;20.956;2024-01-30T12:51:11;22.10;;;12.10;;
65597;SDS011;52267;51.984;20.956;2024-01-30T12:53:39;19.40;;;11.80;;
65597;SDS011;52267;51.984;20.956;2024-01-30T12:56:10;20.60;;;11.30;;
65597;SDS011;52267;51.984;20.956;2024-01-30T12:58:37;19.20;;;11.80;;
65597;SDS011;52267;51.984;20.956;2024-01-30T13:01:04;20.30;;;11.70;;
65597;SDS011;52267;51.984;20.956;2024-01-30T13:03:31;23.00;;;13.10;;
65597;SDS011;52267;51.984;20.956;2024-01-30T13:05:58;18.80;;;10.80;;
65597;SDS011;52267;51.984;20.956;2024-01-30T13:08:26;24.50;;;13.10;;
65597;SDS011;52267;51.984;20.956;2024-01-30T13:10:53;20.30;;;11.20;;
65597;SDS011;52267;51.984;20.956;2024-01-30T13:13:20;22.10;;;12.20;;
65597;SDS011;52267;51.984;20.956;2024-01-30T13:15:48;20.80;;;11.70;;
65597;SDS011;52267;51.984;20.956;2024-01-30T13:18:15;19.60;;;12.10;;
65597;SDS011;52267;51.984;20.956;2024-01-30T13:20:42;19.30;;;11.40;;
65597;SDS011;52267;51.984;20.956;2024-01-30T13:23:09;14.90;;;9.00;;
65597;SDS011;52267;51.984;20.956;2024-01-30T13:25:36;22.60;;;12.00;;
65597;SDS011;52267;51.984;20.956;2024-01-30T13:28:03;19.10;;;11.30;;
65597;SDS011;52267;51.984;20.956;2024-01-30T13:30:31;18.60;;;9.50;;
65597;SDS011;52267;51.984;20.956;2024-01-30T13:32:58;22.20;;;11.40;;
65597;SDS011;52267;51.984;20.956;2024-01-30T13:35:25;18.00;;;10.50;;
65597;SDS011;52267;51.984;20.956;2024-01-30T13:37:52;15.70;;;9.50;;
65597;SDS011;52267;51.984;20.956;2024-01-30T13:40:19;20.30;;;10.00;;
65597;SDS011;52267;51.984;20.956;2024-01-30T13:42:49;17.30;;;9.00;;
65597;SDS011;52267;51.984;20.956;2024-01-30T13:45:16;18.70;;;10.60;;
65597;SDS011;52267;51.984;20.956;2024-01-30T13:47:43;16.90;;;10.60;;
65597;SDS011;52267;51.984;20.956;2024-01-30T13:50:10;16.30;;;8.90;;
65597;SDS011;52267;51.984;20.956;2024-01-30T13:52:42;18.10;;;10.20;;
65597;SDS011;52267;51.984;20.956;2024-01-30T13:55:10;15.00;;;9.50;;
65597;SDS011;52267;51.984;20.956;2024-01-30T13:57:38;20.40;;;10.20;;
65597;SDS011;52267;51.984;20.956;2024-01-30T14:00:06;17.80;;;10.50;;
65597;SDS011;52267;51.984;20.956;2024-01-30T14:02:33;20.90;;;12.50;;
65597;SDS011;52267;51.984;20.956;2024-01-30T14:05:00;18.40;;;10.50;;
65597;SDS011;52267;51.984;20.956;2024-01-30T14:07:28;18.50;;;11.50;;
65597;SDS011;52267;51.984;20.956;2024-01-30T14:09:55;19.50;;;9.60;;
65597;SDS011;52267;51.984;20.956;2024-01-30T14:12:22;18.30;;;10.20;;